aviador You're here:

YMLT Decoded Metar

LAUNCESTON in AUSTRALIA
Report Time2018-02-22 08:00:00
UTC Time2018-02-22 08:37:04
Flight Rules vfr VFR
Wind330° at 14 kt
W.Decomp.*RWY 32: 14.0 kt HW 1 kt LCW
RWY 36: 10.1 kt HW 9.7 kt LCW
W.Rank330° ranks 3
Current wind is above 330° avg. (10.8)
Visibility9999 m
Phenomena:N/A
Clouds:N/A
Expected CloudBase > 4,800 ft AGL from Temp-Dew spread
CeilingNone
Temp23°C (ISA +9)
Dew Point11°C (47% RH)
AAT18.3°C
QNH1014 hPa
Density Alt1,795 ft
Elevation584 ft
Report Wrong Elevation
Raw Report
YMLT 220800Z AUTO 33014KT 9999 // NCD 23/11 Q1014 RF00.0/000.0=

Extra information for YMLT:More info

Metar Taf Metar & Taf Last 4 Metars F.Rules Stats Wind Profile Meteogram Temp Stats Airport Information Weather charts Add Link Nearby VenuesMetar ALERT Operation Metar Decoded Social comments